Time;durP1;ratioP1;P1;durP2;ratioP2;P2;SDS_P1;SDS_P2;PMS_P1;PMS_P2;Temp;Humidity;BMP_temperature;BMP_pressure;BME280_temperature;BME280_humidity;BME280_pressure;Samples;Min_cycle;Max_cycle;Signal;HPM_P1;HPM_P2
2022/07/19 00:02:12;;;;;;;148.50;137.00;;;22.70;58.10;;;;;;4993207;28;20137;-77
2022/07/19 00:04:39;;;;;;;147.30;135.80;;;22.70;58.10;;;;;;4992095;28;20145;-77
2022/07/19 00:07:06;;;;;;;148.93;137.43;;;22.60;58.00;;;;;;4991690;28;20094;-77
2022/07/19 00:09:33;;;;;;;148.40;137.00;;;22.60;58.10;;;;;;4991968;28;20061;-77
2022/07/19 00:12:00;;;;;;;148.95;137.40;;;22.50;58.30;;;;;;5008076;28;20047;-77
2022/07/19 00:14:28;;;;;;;147.65;136.18;;;22.50;58.70;;;;;;4991857;28;20599;-77
2022/07/19 00:16:55;;;;;;;149.07;137.68;;;22.50;58.80;;;;;;4999761;28;20509;-77
2022/07/19 00:19:22;;;;;;;149.55;138.15;;;22.40;58.60;;;;;;4991694;28;20489;-77
2022/07/19 00:21:49;;;;;;;150.60;139.10;;;22.30;58.60;;;;;;4988795;28;20047;-78
2022/07/19 00:24:16;;;;;;;151.40;139.80;;;22.30;58.70;;;;;;5007966;28;20061;-78
2022/07/19 00:26:43;;;;;;;145.45;134.05;;;22.30;58.90;;;;;;4991481;28;20047;-77
2022/07/19 00:29:10;;;;;;;146.02;134.63;;;22.20;59.10;;;;;;4974498;28;20102;-77
2022/07/19 00:31:38;;;;;;;146.10;134.68;;;22.20;59.40;;;;;;4990688;28;20061;-77
2022/07/19 00:34:05;;;;;;;146.32;134.63;;;22.10;59.40;;;;;;5007842;28;20133;-77
2022/07/19 00:36:32;;;;;;;148.45;136.90;;;22.10;59.40;;;;;;4989652;28;20051;-77
2022/07/19 00:38:59;;;;;;;147.38;135.88;;;22.10;59.90;;;;;;4991130;28;20051;-78
2022/07/19 00:41:26;;;;;;;148.27;136.48;;;22.00;60.30;;;;;;5008100;28;20138;-77
2022/07/19 00:43:53;;;;;;;148.90;137.20;;;22.00;60.50;;;;;;4985823;28;20058;-77
2022/07/19 00:46:22;;;;;;;148.18;136.57;;;21.90;60.70;;;;;;4992992;28;20133;-77
2022/07/19 00:48:51;;;;;;;147.48;135.98;;;21.90;61.00;;;;;;4992035;28;20056;-77
2022/07/19 00:51:19;;;;;;;147.45;135.80;;;21.80;61.10;;;;;;4987587;28;20553;-77
2022/07/19 00:53:46;;;;;;;148.80;137.00;;;21.70;61.40;;;;;;4989911;28;20546;-77
2022/07/19 00:56:13;;;;;;;146.48;134.98;;;21.60;61.80;;;;;;4988170;28;20053;-77
2022/07/19 00:58:42;;;;;;;146.70;134.98;;;21.60;62.30;;;;;;4990838;28;20576;-77
2022/07/19 01:01:10;;;;;;;146.00;134.35;;;21.60;62.30;;;;;;4991214;28;20079;-77
2022/07/19 01:03:39;;;;;;;146.02;134.32;;;21.60;62.30;;;;;;4990791;28;20057;-77
2022/07/19 01:06:09;;;;;;;143.60;131.80;;;21.50;62.30;;;;;;4991060;28;20047;-77
2022/07/19 01:08:37;;;;;;;144.90;133.30;;;21.50;62.70;;;;;;4992159;28;20121;-77
2022/07/19 01:11:06;;;;;;;143.18;131.55;;;21.40;62.70;;;;;;4992234;28;20154;-77
2022/07/19 01:13:33;;;;;;;145.20;133.45;;;21.40;62.70;;;;;;4992208;28;20051;-77
2022/07/19 01:16:01;;;;;;;147.93;136.35;;;21.40;63.00;;;;;;4992234;28;20050;-77
2022/07/19 01:18:28;;;;;;;148.35;136.43;;;21.40;63.20;;;;;;4991853;28;20047;-77
2022/07/19 01:20:55;;;;;;;147.68;136.13;;;21.30;63.10;;;;;;4990915;28;20050;-78
2022/07/19 01:23:23;;;;;;;148.18;136.48;;;21.30;63.40;;;;;;4992096;28;20057;-77
2022/07/19 01:25:50;;;;;;;147.60;135.90;;;21.30;63.70;;;;;;4990723;28;20057;-77
2022/07/19 01:28:17;;;;;;;147.48;135.95;;;21.20;64.00;;;;;;4985309;28;20047;-77
2022/07/19 01:30:44;;;;;;;147.10;135.32;;;21.20;64.10;;;;;;4990520;28;20051;-77
2022/07/19 01:33:11;;;;;;;147.75;136.02;;;21.10;63.90;;;;;;4990573;28;20065;-77
2022/07/19 01:35:38;;;;;;;146.68;135.27;;;21.10;63.80;;;;;;4990628;28;20129;-77
2022/07/19 01:38:05;;;;;;;146.10;134.50;;;21.10;63.70;;;;;;4974388;28;20051;-77
2022/07/19 01:40:34;;;;;;;147.23;135.60;;;21.00;63.60;;;;;;4993573;28;20058;-77
2022/07/19 01:43:01;;;;;;;148.23;136.35;;;21.00;63.50;;;;;;4994144;28;20054;-77
2022/07/19 01:45:28;;;;;;;148.10;136.20;;;21.00;63.60;;;;;;5010132;28;20151;-77
2022/07/19 01:47:55;;;;;;;147.75;135.93;;;21.00;63.80;;;;;;4977464;28;20511;-77
2022/07/19 01:50:22;;;;;;;146.20;134.52;;;21.00;64.10;;;;;;4993730;28;20051;-77
2022/07/19 01:52:49;;;;;;;148.25;136.63;;;20.90;64.20;;;;;;4995128;28;20081;-77
2022/07/19 01:55:16;;;;;;;147.25;135.63;;;20.90;64.20;;;;;;4994909;28;20059;-77
2022/07/19 01:57:44;;;;;;;149.45;137.65;;;20.90;64.60;;;;;;4993535;28;20050;-77
2022/07/19 02:00:12;;;;;;;147.70;135.98;;;20.80;64.90;;;;;;4989110;28;20055;-77
2022/07/19 02:02:42;;;;;;;144.88;133.07;;;20.80;64.60;;;;;;4993705;28;20061;-77
2022/07/19 02:05:09;;;;;;;147.50;135.85;;;20.80;64.80;;;;;;5010020;28;20055;-77
2022/07/19 02:07:36;;;;;;;145.90;134.30;;;20.80;64.90;;;;;;4993584;28;20508;-77
2022/07/19 02:10:05;;;;;;;146.07;134.38;;;20.70;65.00;;;;;;4977286;28;20054;-77
2022/07/19 02:12:32;;;;;;;146.70;135.00;;;20.70;65.10;;;;;;4991174;28;20057;-77
2022/07/19 02:15:00;;;;;;;146.70;135.20;;;20.60;64.90;;;;;;4993826;28;20074;-77
2022/07/19 02:17:27;;;;;;;146.90;135.30;;;20.60;65.20;;;;;;4989896;28;20061;-77
2022/07/19 02:19:54;;;;;;;145.93;134.55;;;20.60;65.40;;;;;;4992853;28;20082;-77
2022/07/19 02:22:21;;;;;;;146.43;134.88;;;20.60;65.80;;;;;;5010126;28;20145;-77
2022/07/19 02:24:48;;;;;;;146.18;134.50;;;20.50;66.00;;;;;;4993238;28;20047;-77
2022/07/19 02:27:15;;;;;;;142.98;131.80;;;20.50;66.60;;;;;;5009995;28;20137;-77
2022/07/19 02:29:41;;;;;;;143.15;131.73;;;20.50;66.10;;;;;;4993520;28;20047;-77
2022/07/19 02:32:10;;;;;;;143.68;132.27;;;20.40;66.20;;;;;;4993359;28;20543;-77
2022/07/19 02:34:38;;;;;;;144.02;132.23;;;20.40;66.40;;;;;;4991928;28;20058;-77
2022/07/19 02:37:05;;;;;;;173.60;137.43;;;20.40;66.60;;;;;;4976549;28;20145;-77
2022/07/19 02:39:32;;;;;;;147.20;131.13;;;20.40;66.90;;;;;;4993360;28;20054;-77
2022/07/19 02:42:00;;;;;;;141.65;129.05;;;20.40;67.30;;;;;;4992922;28;20535;-77
2022/07/19 02:44:28;;;;;;;143.00;130.55;;;20.30;67.80;;;;;;4993463;28;20153;-77
2022/07/19 02:46:54;;;;;;;141.02;129.27;;;20.30;68.00;;;;;;4992727;28;20050;-77
2022/07/19 02:49:23;;;;;;;141.25;129.75;;;20.30;68.00;;;;;;4994194;28;20062;-77
2022/07/19 02:51:50;;;;;;;141.63;130.15;;;20.20;68.00;;;;;;4992374;28;20047;-77
2022/07/19 02:54:17;;;;;;;141.02;129.57;;;20.20;68.20;;;;;;4993066;28;20047;-77
2022/07/19 02:56:43;;;;;;;139.77;128.68;;;20.20;68.30;;;;;;4988310;28;20054;-77
2022/07/19 02:59:10;;;;;;;140.35;128.85;;;20.20;68.40;;;;;;5008782;28;20102;-77
2022/07/19 03:01:37;;;;;;;141.93;130.43;;;20.10;68.60;;;;;;4993899;28;20145;-77
2022/07/19 03:04:04;;;;;;;141.63;130.32;;;20.10;69.10;;;;;;4994077;28;20054;-77
2022/07/19 03:06:33;;;;;;;140.73;129.63;;;20.10;69.30;;;;;;4990878;28;20129;-77
2022/07/19 03:09:00;;;;;;;142.57;131.20;;;20.10;70.30;;;;;;4993881;28;20079;-77
2022/07/19 03:11:26;;;;;;;140.20;129.00;;;20.00;70.80;;;;;;4992550;28;20047;-77
2022/07/19 03:13:53;;;;;;;141.30;129.82;;;20.00;70.90;;;;;;4992209;28;20055;-77
2022/07/19 03:16:21;;;;;;;139.95;128.65;;;19.90;71.40;;;;;;4992676;28;20137;-77
2022/07/19 03:18:48;;;;;;;140.38;128.73;;;19.90;71.50;;;;;;4993752;28;20519;-77
2022/07/19 03:21:15;;;;;;;139.98;128.70;;;19.90;71.40;;;;;;4992470;28;20595;-77
2022/07/19 03:23:43;;;;;;;141.18;129.75;;;19.90;71.20;;;;;;4992358;28;20097;-77
2022/07/19 03:26:10;;;;;;;139.95;128.45;;;19.90;71.40;;;;;;4993682;28;20058;-77
2022/07/19 03:28:37;;;;;;;140.85;129.48;;;19.80;71.30;;;;;;4989552;28;20086;-77
2022/07/19 03:31:04;;;;;;;138.45;127.13;;;19.80;71.50;;;;;;4993774;28;20059;-77
2022/07/19 03:33:31;;;;;;;138.02;126.38;;;19.80;71.50;;;;;;4991901;28;20055;-77
2022/07/19 03:35:58;;;;;;;139.45;127.65;;;19.80;71.80;;;;;;4992050;28;20065;-77
2022/07/19 03:38:25;;;;;;;140.52;128.98;;;19.70;71.60;;;;;;4986648;28;20058;-77
2022/07/19 03:40:53;;;;;;;138.02;126.72;;;19.70;71.90;;;;;;4991293;28;20145;-77
2022/07/19 03:43:20;;;;;;;138.68;127.38;;;19.70;72.40;;;;;;5008301;28;20082;-77
2022/07/19 03:45:47;;;;;;;138.27;126.88;;;19.60;72.80;;;;;;4992994;28;20543;-77
2022/07/19 03:48:15;;;;;;;137.68;126.45;;;19.60;73.40;;;;;;4993029;28;20052;-77
2022/07/19 03:50:42;;;;;;;139.95;128.32;;;19.50;74.10;;;;;;5006428;28;20057;-77
2022/07/19 03:53:09;;;;;;;138.88;127.28;;;19.50;74.70;;;;;;4990257;28;20055;-77
2022/07/19 03:55:36;;;;;;;137.75;126.40;;;19.40;74.90;;;;;;4992883;28;20077;-77
2022/07/19 03:58:04;;;;;;;136.63;125.22;;;19.40;74.90;;;;;;4991953;28;20077;-77
2022/07/19 04:00:32;;;;;;;137.73;126.35;;;19.40;74.90;;;;;;4993217;28;20067;-77
2022/07/19 04:02:58;;;;;;;138.68;126.53;;;19.40;75.00;;;;;;4991993;28;20050;-77
2022/07/19 04:05:25;;;;;;;137.15;125.55;;;19.40;74.80;;;;;;4974473;28;20097;-77
2022/07/19 04:07:52;;;;;;;137.52;125.90;;;19.40;74.60;;;;;;4991414;28;20074;-77
2022/07/19 04:10:19;;;;;;;139.20;127.70;;;19.30;74.60;;;;;;4987812;28;20531;-77
2022/07/19 04:12:46;;;;;;;138.88;127.30;;;19.30;75.00;;;;;;4989121;28;20057;-77
2022/07/19 04:15:15;;;;;;;137.63;126.22;;;19.30;75.60;;;;;;4991122;28;20112;-77
2022/07/19 04:17:41;;;;;;;144.15;128.65;;;19.30;75.90;;;;;;4990950;28;20489;-77
2022/07/19 04:20:09;;;;;;;133.95;121.60;;;19.30;75.90;;;;;;4992958;28;20051;-77
2022/07/19 04:22:36;;;;;;;136.23;124.47;;;19.20;75.80;;;;;;4975330;28;20054;-77
2022/07/19 04:25:04;;;;;;;136.68;124.32;;;19.20;76.00;;;;;;4992663;28;20059;-77
2022/07/19 04:27:31;;;;;;;137.57;124.85;;;19.20;75.90;;;;;;4990949;28;20051;-77
2022/07/19 04:29:58;;;;;;;135.55;122.90;;;19.20;75.70;;;;;;4990915;28;20477;-77
2022/07/19 04:32:27;;;;;;;135.48;123.97;;;19.20;76.00;;;;;;4992815;28;20055;-77
2022/07/19 04:34:54;;;;;;;136.48;124.78;;;19.20;76.70;;;;;;4987728;28;20509;-77
2022/07/19 04:37:21;;;;;;;135.73;124.38;;;19.20;77.00;;;;;;4991318;28;20890;-77
2022/07/19 04:39:48;;;;;;;131.05;119.65;;;19.20;77.20;;;;;;4988323;28;20492;-77
2022/07/19 04:42:15;;;;;;;152.88;128.15;;;19.20;77.30;;;;;;4990369;28;20047;-77
2022/07/19 04:44:42;;;;;;;152.20;130.05;;;19.10;77.70;;;;;;4988289;28;20069;-87
2022/07/19 04:47:09;;;;;;;171.10;130.05;;;19.10;79.90;;;;;;4981007;28;20137;-85
2022/07/19 04:49:37;;;;;;;172.40;129.40;;;19.10;81.00;;;;;;4945924;28;20056;-86
2022/07/19 04:52:05;;;;;;;145.93;128.52;;;19.10;82.00;;;;;;5002176;28;20125;-85
2022/07/19 04:54:32;;;;;;;141.57;125.90;;;19.10;81.80;;;;;;5016785;28;20054;-83
2022/07/19 04:56:59;;;;;;;150.13;125.97;;;19.10;82.50;;;;;;5034826;28;20145;-83
2022/07/19 04:59:26;;;;;;;139.55;124.72;;;19.20;83.10;;;;;;5002347;28;20061;-82
2022/07/19 05:01:53;;;;;;;138.15;125.70;;;19.20;83.20;;;;;;5020053;28;20064;-82
2022/07/19 05:04:20;;;;;;;136.82;124.82;;;19.20;83.10;;;;;;5002973;28;20059;-83
2022/07/19 05:06:51;;;;;;;139.32;127.13;;;19.20;83.10;;;;;;5012335;28;20055;-83
2022/07/19 05:09:20;;;;;;;138.40;125.70;;;19.30;83.60;;;;;;5010477;28;20074;-82
2022/07/19 05:11:47;;;;;;;136.35;124.45;;;19.30;83.90;;;;;;5008772;28;20120;-85
2022/07/19 05:14:14;;;;;;;138.10;126.28;;;19.30;84.00;;;;;;5009647;28;20059;-86
2022/07/19 05:16:41;;;;;;;139.48;127.50;;;19.30;83.90;;;;;;5027565;28;20051;-85
2022/07/19 05:19:08;;;;;;;139.63;127.55;;;19.40;84.00;;;;;;5008316;28;20150;-86
2022/07/19 05:21:35;;;;;;;136.00;124.25;;;19.40;84.20;;;;;;5014178;28;20078;-87
2022/07/19 05:24:03;;;;;;;137.95;126.55;;;19.40;84.30;;;;;;5022611;28;20457;-87
2022/07/19 05:26:31;;;;;;;140.10;128.23;;;19.40;84.70;;;;;;5010932;28;20061;-87
2022/07/19 05:28:58;;;;;;;138.93;126.90;;;19.40;85.60;;;;;;4998290;28;20053;-88
2022/07/19 05:31:25;;;;;;;139.27;127.47;;;19.50;86.10;;;;;;4998399;28;20112;-88
2022/07/19 05:33:52;;;;;;;139.02;127.15;;;19.50;86.50;;;;;;5014035;28;20062;-85
2022/07/19 05:36:19;;;;;;;138.63;126.82;;;19.50;87.00;;;;;;5011837;28;20125;-85
2022/07/19 05:38:46;;;;;;;136.15;124.45;;;19.60;87.20;;;;;;5014534;28;20051;-86
2022/07/19 05:41:16;;;;;;;133.85;122.00;;;19.50;87.40;;;;;;4998282;28;20058;-86
2022/07/19 05:43:43;;;;;;;134.75;122.40;;;19.60;87.20;;;;;;4997799;28;20057;-82
2022/07/19 05:46:10;;;;;;;138.98;125.13;;;19.60;87.00;;;;;;5009372;28;20053;-82
2022/07/19 05:48:37;;;;;;;136.13;123.80;;;19.60;87.40;;;;;;4994963;28;20109;-86
2022/07/19 05:51:04;;;;;;;141.80;128.77;;;19.60;87.90;;;;;;5013269;28;20069;-85
2022/07/19 05:53:31;;;;;;;138.43;125.97;;;19.70;88.10;;;;;;5007736;28;20064;-85
2022/07/19 05:55:58;;;;;;;138.45;126.60;;;19.70;88.30;;;;;;4991352;28;20133;-85
2022/07/19 05:58:26;;;;;;;136.70;124.75;;;19.70;88.70;;;;;;5010547;28;20583;-85
2022/07/19 06:03:37;;;;;;;137.65;125.43;;;19.80;87.70;;;;;;5010067;28;20102;-81
2022/07/19 06:06:04;;;;;;;138.13;125.47;;;19.80;87.70;;;;;;5009784;28;20080;-82
2022/07/19 06:08:31;;;;;;;140.85;127.10;;;19.90;87.70;;;;;;5004856;28;20058;-82
2022/07/19 06:10:58;;;;;;;136.48;123.68;;;19.90;87.60;;;;;;4997216;28;20054;-82
2022/07/19 06:13:27;;;;;;;136.10;123.63;;;19.90;87.70;;;;;;5014162;28;20129;-82
2022/07/19 06:15:54;;;;;;;138.07;125.50;;;20.00;87.70;;;;;;5014223;28;20488;-83
2022/07/19 06:18:21;;;;;;;140.07;128.15;;;20.00;87.30;;;;;;5012534;28;20546;-82
2022/07/19 06:20:48;;;;;;;135.82;124.03;;;20.10;87.80;;;;;;5046928;28;20464;-82
2022/07/19 06:23:14;;;;;;;138.50;125.97;;;20.10;88.00;;;;;;5014829;28;20057;-82
2022/07/19 06:25:41;;;;;;;140.45;128.32;;;20.20;88.20;;;;;;5012214;28;20053;-82
2022/07/19 06:28:08;;;;;;;141.75;129.00;;;20.20;88.20;;;;;;4990383;28;20553;-82
2022/07/19 06:30:37;;;;;;;139.77;127.88;;;20.30;88.50;;;;;;4997356;28;20794;-82
2022/07/19 06:33:03;;;;;;;139.95;127.88;;;20.30;88.60;;;;;;5008356;28;20538;-83
2022/07/19 06:35:30;;;;;;;140.85;129.05;;;20.40;88.70;;;;;;5005216;28;20054;-83
2022/07/19 06:37:57;;;;;;;138.93;126.90;;;20.40;88.80;;;;;;4992494;28;20053;-83
2022/07/19 06:40:24;;;;;;;144.52;129.65;;;20.40;88.80;;;;;;4996064;28;20053;-83
2022/07/19 06:42:51;;;;;;;137.02;124.75;;;20.50;88.90;;;;;;4996772;28;20066;-80
2022/07/19 06:45:18;;;;;;;138.52;126.72;;;20.60;89.30;;;;;;5013123;28;20046;-83
2022/07/19 06:47:46;;;;;;;181.50;135.85;;;20.60;89.40;;;;;;5012840;28;20755;-84
2022/07/19 06:50:13;;;;;;;143.35;129.13;;;20.70;89.90;;;;;;4996340;28;20473;-84
2022/07/19 06:52:40;;;;;;;139.70;126.88;;;20.70;90.20;;;;;;4997332;28;20054;-83
2022/07/19 06:55:07;;;;;;;247.82;135.57;;;20.80;90.30;;;;;;4996756;28;20058;-83
2022/07/19 06:57:34;;;;;;;143.68;129.52;;;20.80;90.30;;;;;;5029196;28;20120;-78
2022/07/19 07:00:02;;;;;;;141.50;129.60;;;20.90;90.50;;;;;;4995253;28;20050;-74
2022/07/19 07:02:28;;;;;;;147.43;132.13;;;21.00;90.30;;;;;;4996278;28;20133;-74
2022/07/19 07:04:57;;;;;;;146.70;132.50;;;21.10;90.20;;;;;;5012783;28;20064;-75
2022/07/19 07:07:24;;;;;;;143.63;130.30;;;21.20;90.10;;;;;;5012247;28;20053;-75
2022/07/19 07:09:51;;;;;;;142.13;130.13;;;21.20;90.10;;;;;;5013326;28;20125;-75
2022/07/19 07:12:18;;;;;;;144.00;131.68;;;21.20;89.50;;;;;;5012252;28;20512;-75
2022/07/19 07:14:45;;;;;;;142.18;130.27;;;21.30;89.40;;;;;;5013243;28;20054;-74
2022/07/19 07:17:12;;;;;;;144.77;132.65;;;21.40;90.20;;;;;;5005883;28;20050;-74
2022/07/19 07:19:39;;;;;;;143.95;132.02;;;21.50;90.60;;;;;;5010434;28;20129;-74
2022/07/19 07:22:07;;;;;;;143.75;131.88;;;21.60;91.00;;;;;;5000254;28;20072;-74
2022/07/19 07:24:34;;;;;;;145.15;132.75;;;21.60;91.20;;;;;;5005631;28;20049;-74
2022/07/19 07:27:01;;;;;;;144.07;131.90;;;21.70;91.20;;;;;;5006479;28;20104;-74
2022/07/19 07:29:28;;;;;;;143.77;131.45;;;21.80;91.00;;;;;;5013410;28;20056;-74
2022/07/19 07:31:55;;;;;;;147.80;135.80;;;21.90;90.80;;;;;;5013151;28;20069;-74
2022/07/19 07:34:22;;;;;;;141.60;130.02;;;22.00;90.70;;;;;;5007138;28;20141;-74
2022/07/19 07:36:49;;;;;;;140.48;128.90;;;22.10;91.00;;;;;;5006194;28;20056;-74
2022/07/19 07:39:18;;;;;;;144.68;132.85;;;22.20;91.20;;;;;;5001311;28;20046;-74
2022/07/19 07:41:44;;;;;;;147.65;135.57;;;22.30;91.20;;;;;;5002263;28;20620;-74
2022/07/19 07:44:11;;;;;;;144.60;132.95;;;22.40;90.90;;;;;;5020701;28;20456;-74
2022/07/19 07:46:38;;;;;;;145.60;133.80;;;22.40;90.50;;;;;;4999418;28;20051;-74
2022/07/19 07:49:05;;;;;;;146.77;134.73;;;22.50;90.10;;;;;;5003596;28;20050;-74
2022/07/19 07:51:32;;;;;;;143.52;131.93;;;22.60;90.00;;;;;;5013417;28;20575;-74
2022/07/19 07:54:00;;;;;;;148.25;136.18;;;22.70;90.10;;;;;;5003844;28;20050;-75
2022/07/19 07:56:28;;;;;;;144.70;133.07;;;22.80;90.20;;;;;;5006632;28;20401;-75
2022/07/19 07:58:55;;;;;;;146.60;134.77;;;22.90;90.00;;;;;;5004656;28;20050;-74
2022/07/19 08:01:22;;;;;;;148.40;134.23;;;23.00;90.10;;;;;;5010332;28;20109;-74
2022/07/19 08:03:49;;;;;;;146.00;133.50;;;23.10;90.10;;;;;;5027044;28;20049;-74
2022/07/19 08:06:16;;;;;;;144.95;133.05;;;23.20;89.60;;;;;;5010625;28;20074;-75
2022/07/19 08:08:43;;;;;;;146.50;134.88;;;23.30;89.20;;;;;;5001533;28;20043;-75
2022/07/19 08:11:10;;;;;;;149.05;137.35;;;23.40;89.30;;;;;;5004153;28;20050;-75
2022/07/19 08:13:38;;;;;;;145.10;133.63;;;23.50;89.00;;;;;;5001938;28;20568;-73
2022/07/19 08:16:06;;;;;;;147.07;135.30;;;23.60;87.50;;;;;;4996577;28;20173;-74
2022/07/19 08:18:33;;;;;;;147.73;136.00;;;23.70;86.20;;;;;;5004104;28;20059;-74
2022/07/19 08:21:00;;;;;;;148.00;136.18;;;23.80;85.70;;;;;;5028313;28;20134;-74
2022/07/19 08:23:27;;;;;;;150.82;138.70;;;23.80;85.00;;;;;;5020782;28;20047;-75
2022/07/19 08:25:54;;;;;;;149.02;136.15;;;23.90;84.10;;;;;;5010753;28;20054;-76
2022/07/19 08:28:21;;;;;;;147.73;136.30;;;24.00;83.70;;;;;;5010464;28;20058;-74
2022/07/19 08:30:49;;;;;;;146.13;134.98;;;24.10;82.00;;;;;;5012358;28;20514;-73
2022/07/19 08:33:16;;;;;;;145.80;134.45;;;24.30;81.40;;;;;;5006796;28;20494;-74
2022/07/19 08:35:44;;;;;;;149.13;137.20;;;24.40;81.30;;;;;;5002662;28;20046;-74
2022/07/19 08:38:11;;;;;;;147.68;136.68;;;24.50;81.00;;;;;;5007150;28;20051;-74
2022/07/19 08:40:42;;;;;;;150.38;139.02;;;24.60;80.60;;;;;;5005740;28;20157;-74
2022/07/19 08:43:10;;;;;;;145.63;134.60;;;24.80;78.90;;;;;;5005633;28;20410;-74
2022/07/19 08:45:39;;;;;;;147.45;136.25;;;24.90;77.30;;;;;;4995888;28;20062;-75
2022/07/19 08:48:08;;;;;;;147.68;136.73;;;25.00;76.40;;;;;;5002111;28;20496;-75
2022/07/19 08:50:36;;;;;;;148.15;137.23;;;25.10;76.00;;;;;;5008084;28;20052;-76
2022/07/19 08:53:03;;;;;;;151.63;140.43;;;25.20;75.40;;;;;;5002672;28;20070;-73
2022/07/19 08:55:30;;;;;;;149.00;138.00;;;25.40;74.80;;;;;;4994937;28;20086;-73
2022/07/19 08:58:01;;;;;;;149.50;138.18;;;25.50;74.70;;;;;;5004343;28;20058;-73
2022/07/19 09:00:29;;;;;;;150.27;139.07;;;25.60;74.20;;;;;;5007755;28;20800;-74
2022/07/19 09:02:58;;;;;;;150.10;138.38;;;25.80;74.70;;;;;;5027365;28;20057;-73
2022/07/19 09:05:27;;;;;;;150.93;139.27;;;25.90;74.90;;;;;;4994455;28;20054;-73
2022/07/19 09:08:04;;;;;;;150.23;139.15;;;26.00;73.70;;;;;;4998080;28;20519;-74
2022/07/19 09:10:32;;;;;;;149.07;137.73;;;26.20;73.20;;;;;;5008358;28;20074;-74
2022/07/19 09:13:05;;;;;;;148.05;136.95;;;26.40;73.90;;;;;;5011545;28;20065;-73
2022/07/19 09:15:44;;;;;;;169.75;142.95;;;26.50;74.00;;;;;;5000215;28;20062;-74
2022/07/19 09:18:14;;;;;;;152.20;140.68;;;26.60;74.40;;;;;;5009081;28;20046;-73
2022/07/19 09:20:43;;;;;;;150.88;139.68;;;26.70;74.30;;;;;;5009913;28;20062;-74
2022/07/19 09:23:12;;;;;;;151.85;140.50;;;26.80;74.20;;;;;;5012429;28;20054;-74
2022/07/19 09:25:41;;;;;;;147.55;136.85;;;26.90;73.10;;;;;;5012970;28;20489;-73
2022/07/19 09:28:09;;;;;;;151.50;140.50;;;27.00;73.10;;;;;;5010186;28;20058;-74
2022/07/19 09:30:38;;;;;;;152.30;141.35;;;27.20;72.70;;;;;;5008790;28;20049;-74
2022/07/19 09:33:10;;;;;;;150.98;140.02;;;27.30;72.50;;;;;;4996453;28;20512;-74
2022/07/19 09:35:38;;;;;;;156.18;144.98;;;27.40;71.10;;;;;;4994543;28;20122;-73
2022/07/19 09:38:22;;;;;;;152.45;141.35;;;27.50;71.10;;;;;;4994608;28;20056;-73
2022/07/19 09:40:51;;;;;;;157.10;145.68;;;27.60;70.60;;;;;;4997378;28;20051;-74
2022/07/19 09:43:19;;;;;;;156.40;145.00;;;27.70;68.00;;;;;;4993518;28;20053;-75
2022/07/19 09:45:46;;;;;;;156.25;144.75;;;27.80;67.70;;;;;;5006207;28;20415;-75
2022/07/19 09:48:13;;;;;;;164.70;153.27;;;27.90;68.10;;;;;;5005048;28;20051;-75
2022/07/19 09:50:40;;;;;;;154.65;143.05;;;27.90;67.00;;;;;;5007610;28;20054;-75
2022/07/19 09:53:07;;;;;;;155.57;144.07;;;28.10;66.50;;;;;;5009557;28;20566;-75
2022/07/19 09:55:36;;;;;;;156.88;144.52;;;28.20;65.90;;;;;;5025453;28;20050;-74
2022/07/19 09:58:04;;;;;;;156.80;143.75;;;28.30;65.20;;;;;;4998148;28;20513;-74
2022/07/19 10:00:31;;;;;;;155.27;144.07;;;28.50;65.50;;;;;;5020928;28;20043;-74
2022/07/19 10:03:00;;;;;;;156.05;143.27;;;28.60;65.10;;;;;;5011864;28;20053;-73
2022/07/19 10:05:30;;;;;;;159.60;148.05;;;28.60;66.20;;;;;;5008986;28;20061;-74
2022/07/19 10:07:58;;;;;;;161.15;149.95;;;28.80;66.30;;;;;;5012334;28;20059;-73
2022/07/19 10:10:30;;;;;;;158.68;147.38;;;28.90;65.60;;;;;;5027870;28;20642;-74
2022/07/19 10:12:59;;;;;;;158.90;147.60;;;29.00;65.50;;;;;;5000976;28;20073;-74
2022/07/19 10:15:27;;;;;;;160.23;149.00;;;29.10;64.50;;;;;;4997825;28;20047;-75
2022/07/19 10:18:08;;;;;;;163.95;151.18;;;29.20;64.40;;;;;;5000146;28;20511;-74
2022/07/19 10:20:36;;;;;;;163.18;150.02;;;29.30;63.40;;;;;;5012036;28;20082;-74
2022/07/19 10:23:04;;;;;;;160.48;149.13;;;29.50;63.40;;;;;;5001927;28;20050;-74
2022/07/19 10:25:40;;;;;;;160.82;148.70;;;29.60;62.10;;;;;;5014093;28;20050;-74
2022/07/19 10:28:31;;;;;;;164.73;152.43;;;29.80;61.40;;;;;;5028799;28;20051;-73
2022/07/19 10:30:58;;;;;;;162.77;151.23;;;29.90;61.20;;;;;;5006947;28;20081;-73
2022/07/19 10:33:59;;;;;;;157.90;146.63;;;30.00;60.70;;;;;;5014033;28;20129;-73
2022/07/19 10:36:34;;;;;;;159.07;147.65;;;30.10;61.70;;;;;;5007354;28;20047;-73
2022/07/19 10:39:21;;;;;;;160.32;148.82;;;30.20;60.10;;;;;;5026314;28;20047;-74
2022/07/19 10:42:08;;;;;;;160.60;149.05;;;30.30;59.50;;;;;;5044059;28;20046;-72
2022/07/19 10:45:10;;;;;;;158.18;146.93;;;30.40;58.60;;;;;;5012019;28;20057;-74
2022/07/19 10:48:02;;;;;;;159.73;148.43;;;30.50;58.00;;;;;;5010291;28;20054;-73
2022/07/19 10:50:50;;;;;;;158.60;147.18;;;30.60;57.70;;;;;;5012495;28;20086;-73
2022/07/19 10:53:54;;;;;;;160.82;149.20;;;30.70;55.30;;;;;;5009520;28;20078;-73
2022/07/19 10:56:24;;;;;;;163.55;151.75;;;30.70;54.70;;;;;;5025892;28;20127;-70
2022/07/19 10:58:53;;;;;;;160.65;149.65;;;30.80;53.70;;;;;;5011847;28;20133;-74
2022/07/19 11:01:21;;;;;;;163.30;152.20;;;30.80;53.30;;;;;;5017284;28;20511;-73
2022/07/19 11:03:51;;;;;;;161.20;149.73;;;30.90;53.60;;;;;;4996555;28;20136;-73
2022/07/19 11:06:24;;;;;;;163.23;152.13;;;31.00;53.10;;;;;;5009731;28;20101;-73
2022/07/19 11:08:55;;;;;;;161.55;150.35;;;31.10;52.80;;;;;;4995559;28;20153;-73
2022/07/19 11:11:22;;;;;;;166.32;153.25;;;31.20;52.70;;;;;;5010395;28;20055;-73
2022/07/19 11:13:50;;;;;;;168.43;155.82;;;31.30;52.00;;;;;;5010877;28;20051;-73
2022/07/19 11:16:17;;;;;;;162.57;150.90;;;31.30;52.40;;;;;;5010591;28;20475;-73
2022/07/19 11:18:45;;;;;;;159.40;148.50;;;31.40;51.80;;;;;;5010892;28;20583;-73
2022/07/19 11:21:15;;;;;;;164.15;152.65;;;31.50;51.40;;;;;;5010298;28;20050;-73
2022/07/19 11:23:44;;;;;;;160.10;149.32;;;31.60;51.00;;;;;;5004402;28;20058;-74
2022/07/19 11:26:12;;;;;;;164.95;154.05;;;31.70;50.70;;;;;;5013101;28;20082;-75
2022/07/19 11:28:41;;;;;;;162.98;151.88;;;31.80;50.40;;;;;;5007347;28;20055;-73
2022/07/19 11:31:13;;;;;;;165.60;154.60;;;31.90;50.40;;;;;;5010944;28;20062;-73
2022/07/19 11:33:40;;;;;;;159.43;148.33;;;31.90;50.60;;;;;;5010629;28;20046;-73
2022/07/19 11:36:09;;;;;;;161.38;150.38;;;32.00;50.50;;;;;;5003261;28;20070;-73
2022/07/19 11:38:39;;;;;;;162.98;151.30;;;32.10;49.70;;;;;;5003363;28;20050;-73
2022/07/19 11:41:13;;;;;;;165.73;151.55;;;32.20;49.70;;;;;;5019351;28;20528;-73
2022/07/19 11:43:40;;;;;;;163.70;152.32;;;32.40;50.00;;;;;;5007569;28;20050;-74
2022/07/19 11:46:07;;;;;;;163.75;152.55;;;32.40;49.20;;;;;;4998139;28;20043;-74
2022/07/19 11:48:34;;;;;;;165.73;154.10;;;32.50;49.30;;;;;;4999232;28;20054;-75
2022/07/19 11:51:05;;;;;;;164.55;153.35;;;32.60;48.70;;;;;;5002214;28;20129;-74
2022/07/19 11:53:32;;;;;;;164.65;153.65;;;32.70;49.00;;;;;;5025483;28;20413;-74
2022/07/19 11:56:00;;;;;;;167.13;156.02;;;32.80;49.20;;;;;;5041232;28;20050;-74
2022/07/19 11:58:28;;;;;;;164.02;152.52;;;32.80;49.70;;;;;;5012184;28;20153;-74
2022/07/19 12:01:04;;;;;;;168.80;157.48;;;32.90;48.90;;;;;;5012424;28;20050;-75
2022/07/19 12:03:32;;;;;;;168.98;157.70;;;33.00;48.00;;;;;;5008823;28;20055;-74
2022/07/19 12:06:01;;;;;;;167.27;156.57;;;33.00;48.80;;;;;;5013148;28;20137;-75
2022/07/19 12:08:37;;;;;;;175.32;164.23;;;33.10;48.50;;;;;;5011549;28;20077;-75
2022/07/19 12:11:18;;;;;;;173.63;161.20;;;33.20;46.40;;;;;;5011607;28;20049;-74
2022/07/19 12:13:46;;;;;;;172.20;160.85;;;33.20;46.30;;;;;;5043751;28;20077;-74
2022/07/19 12:16:14;;;;;;;174.02;162.90;;;33.20;46.60;;;;;;5039161;28;20046;-75
2022/07/19 12:18:46;;;;;;;176.95;165.95;;;33.20;45.80;;;;;;5013136;28;20062;-74